sensor_id;sensor_type;location;lat;lon;timestamp;P1;durP1;ratioP1;P2;durP2;ratioP2
77123;SDS011;66079;47.646;19.130;2023-02-28T00:02:57;17.08;;;8.65;;
77123;SDS011;66079;47.646;19.130;2023-02-28T00:06:03;18.92;;;9.65;;
77123;SDS011;66079;47.646;19.130;2023-02-28T00:09:06;19.58;;;9.00;;
77123;SDS011;66079;47.646;19.130;2023-02-28T00:12:09;20.17;;;9.90;;
77123;SDS011;66079;47.646;19.130;2023-02-28T00:15:12;17.02;;;8.80;;
77123;SDS011;66079;47.646;19.130;2023-02-28T00:18:16;15.48;;;7.95;;
77123;SDS011;66079;47.646;19.130;2023-02-28T00:21:19;14.65;;;7.88;;
77123;SDS011;66079;47.646;19.130;2023-02-28T00:24:22;14.10;;;7.30;;
77123;SDS011;66079;47.646;19.130;2023-02-28T00:27:25;20.45;;;9.15;;
77123;SDS011;66079;47.646;19.130;2023-02-28T00:30:28;14.82;;;7.35;;
77123;SDS011;66079;47.646;19.130;2023-02-28T00:33:31;16.03;;;7.90;;
77123;SDS011;66079;47.646;19.130;2023-02-28T00:36:33;12.82;;;7.05;;
77123;SDS011;66079;47.646;19.130;2023-02-28T00:39:39;15.73;;;6.93;;
77123;SDS011;66079;47.646;19.130;2023-02-28T00:42:42;12.50;;;6.75;;
77123;SDS011;66079;47.646;19.130;2023-02-28T00:45:44;16.58;;;7.30;;
77123;SDS011;66079;47.646;19.130;2023-02-28T00:48:47;14.57;;;7.25;;
77123;SDS011;66079;47.646;19.130;2023-02-28T00:51:49;11.95;;;6.57;;
77123;SDS011;66079;47.646;19.130;2023-02-28T00:54:54;12.40;;;6.63;;
77123;SDS011;66079;47.646;19.130;2023-02-28T00:57:56;13.32;;;6.95;;
77123;SDS011;66079;47.646;19.130;2023-02-28T01:00:59;12.90;;;7.60;;
77123;SDS011;66079;47.646;19.130;2023-02-28T01:04:02;12.55;;;7.35;;
77123;SDS011;66079;47.646;19.130;2023-02-28T01:07:05;14.40;;;7.38;;
77123;SDS011;66079;47.646;19.130;2023-02-28T01:10:08;12.00;;;7.03;;
77123;SDS011;66079;47.646;19.130;2023-02-28T01:13:14;12.13;;;6.70;;
77123;SDS011;66079;47.646;19.130;2023-02-28T01:16:18;13.70;;;6.10;;
77123;SDS011;66079;47.646;19.130;2023-02-28T01:19:20;15.90;;;6.55;;
77123;SDS011;66079;47.646;19.130;2023-02-28T01:22:23;14.13;;;6.53;;
77123;SDS011;66079;47.646;19.130;2023-02-28T01:25:26;12.63;;;6.57;;
77123;SDS011;66079;47.646;19.130;2023-02-28T01:28:28;10.53;;;5.93;;
77123;SDS011;66079;47.646;19.130;2023-02-28T01:31:32;10.60;;;5.72;;
77123;SDS011;66079;47.646;19.130;2023-02-28T01:34:35;12.75;;;6.70;;
77123;SDS011;66079;47.646;19.130;2023-02-28T01:37:38;14.43;;;6.25;;
77123;SDS011;66079;47.646;19.130;2023-02-28T01:40:41;11.13;;;6.57;;
77123;SDS011;66079;47.646;19.130;2023-02-28T01:46:47;14.98;;;7.57;;
77123;SDS011;66079;47.646;19.130;2023-02-28T01:49:50;14.20;;;6.87;;
77123;SDS011;66079;47.646;19.130;2023-02-28T01:52:54;13.93;;;7.55;;
77123;SDS011;66079;47.646;19.130;2023-02-28T01:56:02;13.52;;;7.95;;
77123;SDS011;66079;47.646;19.130;2023-02-28T01:59:08;14.98;;;8.15;;
77123;SDS011;66079;47.646;19.130;2023-02-28T02:02:12;17.80;;;7.67;;
77123;SDS011;66079;47.646;19.130;2023-02-28T02:05:19;16.00;;;7.97;;
77123;SDS011;66079;47.646;19.130;2023-02-28T02:08:26;16.85;;;7.97;;
77123;SDS011;66079;47.646;19.130;2023-02-28T02:11:31;17.60;;;8.40;;
77123;SDS011;66079;47.646;19.130;2023-02-28T02:17:55;15.88;;;8.10;;
77123;SDS011;66079;47.646;19.130;2023-02-28T02:31:51;17.92;;;7.85;;
77123;SDS011;66079;47.646;19.130;2023-02-28T02:42:27;11.90;;;6.15;;
77123;SDS011;66079;47.646;19.130;2023-02-28T02:45:39;13.07;;;6.53;;
77123;SDS011;66079;47.646;19.130;2023-02-28T02:48:48;15.95;;;6.82;;
77123;SDS011;66079;47.646;19.130;2023-02-28T02:51:56;12.10;;;6.30;;
77123;SDS011;66079;47.646;19.130;2023-02-28T02:55:06;9.98;;;5.95;;
77123;SDS011;66079;47.646;19.130;2023-02-28T02:58:14;14.23;;;5.95;;
77123;SDS011;66079;47.646;19.130;2023-02-28T03:01:22;11.10;;;5.80;;
77123;SDS011;66079;47.646;19.130;2023-02-28T03:04:32;11.23;;;5.43;;
77123;SDS011;66079;47.646;19.130;2023-02-28T03:07:41;11.15;;;5.93;;
77123;SDS011;66079;47.646;19.130;2023-02-28T03:10:46;11.70;;;6.40;;
77123;SDS011;66079;47.646;19.130;2023-02-28T03:20:31;14.05;;;6.43;;
77123;SDS011;66079;47.646;19.130;2023-02-28T03:26:39;12.00;;;6.43;;
77123;SDS011;66079;47.646;19.130;2023-02-28T03:29:46;12.98;;;6.72;;
77123;SDS011;66079;47.646;19.130;2023-02-28T03:32:57;12.07;;;6.60;;
77123;SDS011;66079;47.646;19.130;2023-02-28T03:36:08;11.15;;;6.55;;
77123;SDS011;66079;47.646;19.130;2023-02-28T03:39:23;12.17;;;6.97;;
77123;SDS011;66079;47.646;19.130;2023-02-28T03:42:31;12.15;;;6.97;;
77123;SDS011;66079;47.646;19.130;2023-02-28T03:45:36;12.85;;;6.50;;
77123;SDS011;66079;47.646;19.130;2023-02-28T03:48:45;12.25;;;6.38;;
77123;SDS011;66079;47.646;19.130;2023-02-28T03:51:53;10.73;;;6.03;;
77123;SDS011;66079;47.646;19.130;2023-02-28T03:55:01;14.40;;;7.40;;
77123;SDS011;66079;47.646;19.130;2023-02-28T04:01:24;10.95;;;6.35;;
77123;SDS011;66079;47.646;19.130;2023-02-28T04:04:33;10.93;;;6.13;;
77123;SDS011;66079;47.646;19.130;2023-02-28T04:07:36;13.57;;;6.72;;
77123;SDS011;66079;47.646;19.130;2023-02-28T04:10:39;12.48;;;6.05;;
77123;SDS011;66079;47.646;19.130;2023-02-28T04:13:42;12.60;;;6.13;;
77123;SDS011;66079;47.646;19.130;2023-02-28T04:16:48;11.53;;;6.20;;
77123;SDS011;66079;47.646;19.130;2023-02-28T04:19:50;11.95;;;6.00;;
77123;SDS011;66079;47.646;19.130;2023-02-28T04:22:53;12.00;;;6.78;;
77123;SDS011;66079;47.646;19.130;2023-02-28T04:25:55;12.55;;;5.85;;
77123;SDS011;66079;47.646;19.130;2023-02-28T04:28:58;9.00;;;5.20;;
77123;SDS011;66079;47.646;19.130;2023-02-28T04:32:01;12.15;;;5.57;;
77123;SDS011;66079;47.646;19.130;2023-02-28T04:35:05;9.90;;;6.03;;
77123;SDS011;66079;47.646;19.130;2023-02-28T04:38:08;11.52;;;6.10;;
77123;SDS011;66079;47.646;19.130;2023-02-28T04:41:11;11.27;;;5.75;;
77123;SDS011;66079;47.646;19.130;2023-02-28T04:44:14;12.15;;;5.55;;
77123;SDS011;66079;47.646;19.130;2023-02-28T04:47:17;11.55;;;6.30;;
77123;SDS011;66079;47.646;19.130;2023-02-28T04:50:20;10.57;;;5.57;;
77123;SDS011;66079;47.646;19.130;2023-02-28T04:53:22;11.57;;;5.88;;
77123;SDS011;66079;47.646;19.130;2023-02-28T04:56:26;12.15;;;5.88;;
77123;SDS011;66079;47.646;19.130;2023-02-28T04:59:28;12.85;;;6.32;;
77123;SDS011;66079;47.646;19.130;2023-02-28T05:02:31;11.07;;;6.07;;
77123;SDS011;66079;47.646;19.130;2023-02-28T05:05:37;12.13;;;6.40;;
77123;SDS011;66079;47.646;19.130;2023-02-28T05:08:40;10.88;;;6.00;;
77123;SDS011;66079;47.646;19.130;2023-02-28T05:11:43;10.88;;;5.80;;
77123;SDS011;66079;47.646;19.130;2023-02-28T05:14:45;12.33;;;6.20;;
77123;SDS011;66079;47.646;19.130;2023-02-28T05:17:48;11.38;;;5.38;;
77123;SDS011;66079;47.646;19.130;2023-02-28T05:20:51;10.15;;;5.68;;
77123;SDS011;66079;47.646;19.130;2023-02-28T05:23:54;12.98;;;7.15;;
77123;SDS011;66079;47.646;19.130;2023-02-28T05:26:58;21.27;;;8.27;;
77123;SDS011;66079;47.646;19.130;2023-02-28T05:30:01;17.38;;;9.23;;
77123;SDS011;66079;47.646;19.130;2023-02-28T05:33:05;18.23;;;8.93;;
77123;SDS011;66079;47.646;19.130;2023-02-28T05:36:12;19.30;;;9.48;;
77123;SDS011;66079;47.646;19.130;2023-02-28T05:39:14;11.90;;;7.43;;
77123;SDS011;66079;47.646;19.130;2023-02-28T05:42:18;12.37;;;6.17;;
77123;SDS011;66079;47.646;19.130;2023-02-28T05:45:21;15.18;;;6.63;;
77123;SDS011;66079;47.646;19.130;2023-02-28T05:48:24;12.77;;;6.03;;
77123;SDS011;66079;47.646;19.130;2023-02-28T05:51:28;11.77;;;6.03;;
77123;SDS011;66079;47.646;19.130;2023-02-28T05:54:31;11.57;;;6.00;;
77123;SDS011;66079;47.646;19.130;2023-02-28T05:57:34;13.52;;;6.13;;
77123;SDS011;66079;47.646;19.130;2023-02-28T06:00:36;10.98;;;5.70;;
77123;SDS011;66079;47.646;19.130;2023-02-28T06:03:39;10.47;;;5.20;;
77123;SDS011;66079;47.646;19.130;2023-02-28T06:06:41;10.25;;;5.40;;
77123;SDS011;66079;47.646;19.130;2023-02-28T06:09:44;13.68;;;6.38;;
77123;SDS011;66079;47.646;19.130;2023-02-28T06:12:46;16.75;;;6.28;;
77123;SDS011;66079;47.646;19.130;2023-02-28T06:15:49;13.80;;;5.50;;
77123;SDS011;66079;47.646;19.130;2023-02-28T06:18:51;12.97;;;6.70;;
77123;SDS011;66079;47.646;19.130;2023-02-28T06:22:00;15.50;;;5.75;;
77123;SDS011;66079;47.646;19.130;2023-02-28T06:25:03;9.63;;;5.82;;
77123;SDS011;66079;47.646;19.130;2023-02-28T06:28:07;17.20;;;6.80;;
77123;SDS011;66079;47.646;19.130;2023-02-28T06:31:11;16.15;;;6.43;;
77123;SDS011;66079;47.646;19.130;2023-02-28T06:34:15;14.73;;;6.05;;
77123;SDS011;66079;47.646;19.130;2023-02-28T06:37:18;15.57;;;6.68;;
77123;SDS011;66079;47.646;19.130;2023-02-28T06:40:21;13.60;;;6.77;;
77123;SDS011;66079;47.646;19.130;2023-02-28T06:43:24;15.97;;;7.23;;
77123;SDS011;66079;47.646;19.130;2023-02-28T06:46:27;16.65;;;7.43;;
77123;SDS011;66079;47.646;19.130;2023-02-28T06:49:30;11.70;;;6.72;;
77123;SDS011;66079;47.646;19.130;2023-02-28T06:52:33;13.40;;;6.75;;
77123;SDS011;66079;47.646;19.130;2023-02-28T06:55:40;12.40;;;6.90;;
77123;SDS011;66079;47.646;19.130;2023-02-28T06:58:47;16.17;;;6.43;;
77123;SDS011;66079;47.646;19.130;2023-02-28T07:01:52;15.32;;;6.05;;
77123;SDS011;66079;47.646;19.130;2023-02-28T07:04:54;11.57;;;5.10;;
77123;SDS011;66079;47.646;19.130;2023-02-28T07:07:57;10.20;;;5.17;;
77123;SDS011;66079;47.646;19.130;2023-02-28T07:11:00;10.82;;;5.63;;
77123;SDS011;66079;47.646;19.130;2023-02-28T07:14:02;12.77;;;5.55;;
77123;SDS011;66079;47.646;19.130;2023-02-28T07:17:06;10.48;;;5.00;;
77123;SDS011;66079;47.646;19.130;2023-02-28T07:20:11;6.40;;;3.70;;
77123;SDS011;66079;47.646;19.130;2023-02-28T07:23:13;9.90;;;4.40;;
77123;SDS011;66079;47.646;19.130;2023-02-28T07:26:17;9.70;;;4.85;;
77123;SDS011;66079;47.646;19.130;2023-02-28T07:29:20;8.35;;;4.25;;
77123;SDS011;66079;47.646;19.130;2023-02-28T07:32:23;9.37;;;4.30;;
77123;SDS011;66079;47.646;19.130;2023-02-28T07:35:26;8.13;;;4.38;;
77123;SDS011;66079;47.646;19.130;2023-02-28T07:38:28;8.00;;;4.55;;
77123;SDS011;66079;47.646;19.130;2023-02-28T07:41:31;6.65;;;3.72;;
77123;SDS011;66079;47.646;19.130;2023-02-28T07:44:36;9.13;;;4.20;;
77123;SDS011;66079;47.646;19.130;2023-02-28T07:47:42;8.23;;;4.37;;
77123;SDS011;66079;47.646;19.130;2023-02-28T07:50:53;8.63;;;3.63;;
77123;SDS011;66079;47.646;19.130;2023-02-28T07:53:58;8.23;;;3.90;;
77123;SDS011;66079;47.646;19.130;2023-02-28T07:57:00;7.78;;;4.25;;
77123;SDS011;66079;47.646;19.130;2023-02-28T08:00:04;8.10;;;3.90;;
77123;SDS011;66079;47.646;19.130;2023-02-28T08:03:13;6.63;;;3.87;;
77123;SDS011;66079;47.646;19.130;2023-02-28T08:06:17;8.43;;;4.00;;
77123;SDS011;66079;47.646;19.130;2023-02-28T08:09:22;7.25;;;3.90;;
77123;SDS011;66079;47.646;19.130;2023-02-28T08:12:25;7.50;;;4.03;;
77123;SDS011;66079;47.646;19.130;2023-02-28T08:15:27;7.43;;;3.93;;
77123;SDS011;66079;47.646;19.130;2023-02-28T08:18:30;6.77;;;3.87;;
77123;SDS011;66079;47.646;19.130;2023-02-28T08:21:35;7.63;;;3.72;;
77123;SDS011;66079;47.646;19.130;2023-02-28T08:24:37;7.10;;;4.53;;
77123;SDS011;66079;47.646;19.130;2023-02-28T08:27:40;8.35;;;4.63;;
77123;SDS011;66079;47.646;19.130;2023-02-28T08:30:44;7.53;;;4.10;;
77123;SDS011;66079;47.646;19.130;2023-02-28T08:33:47;9.23;;;4.82;;
77123;SDS011;66079;47.646;19.130;2023-02-28T08:36:51;10.40;;;4.38;;
77123;SDS011;66079;47.646;19.130;2023-02-28T08:39:56;10.60;;;4.60;;
77123;SDS011;66079;47.646;19.130;2023-02-28T08:42:59;9.35;;;4.82;;
77123;SDS011;66079;47.646;19.130;2023-02-28T08:46:02;9.67;;;4.93;;
77123;SDS011;66079;47.646;19.130;2023-02-28T08:49:05;8.13;;;4.45;;
77123;SDS011;66079;47.646;19.130;2023-02-28T08:52:09;9.40;;;4.78;;
77123;SDS011;66079;47.646;19.130;2023-02-28T08:55:12;12.77;;;5.03;;
77123;SDS011;66079;47.646;19.130;2023-02-28T08:58:14;7.57;;;4.93;;
77123;SDS011;66079;47.646;19.130;2023-02-28T09:01:18;9.83;;;5.00;;
77123;SDS011;66079;47.646;19.130;2023-02-28T09:04:22;7.90;;;5.22;;
77123;SDS011;66079;47.646;19.130;2023-02-28T09:07:26;9.32;;;5.05;;
77123;SDS011;66079;47.646;19.130;2023-02-28T09:10:29;9.02;;;5.65;;
77123;SDS011;66079;47.646;19.130;2023-02-28T09:13:32;8.93;;;4.47;;
77123;SDS011;66079;47.646;19.130;2023-02-28T09:16:35;8.10;;;4.73;;
77123;SDS011;66079;47.646;19.130;2023-02-28T09:19:39;7.50;;;4.28;;
77123;SDS011;66079;47.646;19.130;2023-02-28T09:22:43;6.90;;;4.07;;
77123;SDS011;66079;47.646;19.130;2023-02-28T09:25:47;6.97;;;3.80;;
77123;SDS011;66079;47.646;19.130;2023-02-28T09:28:51;6.37;;;3.13;;
77123;SDS011;66079;47.646;19.130;2023-02-28T09:31:54;4.73;;;2.83;;
77123;SDS011;66079;47.646;19.130;2023-02-28T09:35:01;4.35;;;2.83;;
77123;SDS011;66079;47.646;19.130;2023-02-28T09:38:03;6.13;;;3.35;;
77123;SDS011;66079;47.646;19.130;2023-02-28T09:41:11;6.25;;;3.40;;
77123;SDS011;66079;47.646;19.130;2023-02-28T09:44:36;5.30;;;3.63;;
77123;SDS011;66079;47.646;19.130;2023-02-28T09:47:46;5.63;;;3.33;;
77123;SDS011;66079;47.646;19.130;2023-02-28T09:50:52;6.32;;;3.17;;
77123;SDS011;66079;47.646;19.130;2023-02-28T09:54:01;5.47;;;3.40;;
77123;SDS011;66079;47.646;19.130;2023-02-28T10:03:28;6.50;;;3.63;;
77123;SDS011;66079;47.646;19.130;2023-02-28T10:06:39;5.07;;;3.80;;
77123;SDS011;66079;47.646;19.130;2023-02-28T10:09:49;6.20;;;3.40;;
77123;SDS011;66079;47.646;19.130;2023-02-28T10:12:57;6.22;;;3.60;;
77123;SDS011;66079;47.646;19.130;2023-02-28T10:16:13;5.63;;;3.70;;
77123;SDS011;66079;47.646;19.130;2023-02-28T10:19:32;5.90;;;3.73;;
77123;SDS011;66079;47.646;19.130;2023-02-28T10:22:58;4.85;;;3.72;;
77123;SDS011;66079;47.646;19.130;2023-02-28T10:26:21;7.88;;;4.03;;
77123;SDS011;66079;47.646;19.130;2023-02-28T10:29:26;5.45;;;4.10;;
77123;SDS011;66079;47.646;19.130;2023-02-28T10:32:35;7.47;;;4.10;;
77123;SDS011;66079;47.646;19.130;2023-02-28T10:35:40;6.00;;;4.20;;
77123;SDS011;66079;47.646;19.130;2023-02-28T10:38:45;6.70;;;4.40;;
77123;SDS011;66079;47.646;19.130;2023-02-28T10:41:48;8.00;;;4.60;;
77123;SDS011;66079;47.646;19.130;2023-02-28T10:45:09;7.93;;;4.50;;
77123;SDS011;66079;47.646;19.130;2023-02-28T10:51:18;7.80;;;4.60;;
77123;SDS011;66079;47.646;19.130;2023-02-28T10:54:34;10.57;;;5.70;;
77123;SDS011;66079;47.646;19.130;2023-02-28T10:57:39;8.05;;;5.18;;
77123;SDS011;66079;47.646;19.130;2023-02-28T11:00:42;8.70;;;5.57;;
77123;SDS011;66079;47.646;19.130;2023-02-28T11:03:45;6.10;;;4.27;;
77123;SDS011;66079;47.646;19.130;2023-02-28T11:06:57;8.37;;;5.10;;
77123;SDS011;66079;47.646;19.130;2023-02-28T11:09:59;7.72;;;4.28;;
77123;SDS011;66079;47.646;19.130;2023-02-28T11:13:02;5.20;;;4.38;;
77123;SDS011;66079;47.646;19.130;2023-02-28T11:16:06;5.82;;;4.13;;
77123;SDS011;66079;47.646;19.130;2023-02-28T11:19:18;10.80;;;3.83;;
77123;SDS011;66079;47.646;19.130;2023-02-28T11:22:25;5.37;;;3.90;;
77123;SDS011;66079;47.646;19.130;2023-02-28T11:25:35;4.30;;;3.55;;
77123;SDS011;66079;47.646;19.130;2023-02-28T11:28:40;6.65;;;3.90;;
77123;SDS011;66079;47.646;19.130;2023-02-28T11:31:51;7.18;;;3.80;;
77123;SDS011;66079;47.646;19.130;2023-02-28T11:35:44;5.27;;;3.57;;
77123;SDS011;66079;47.646;19.130;2023-02-28T11:38:47;7.53;;;4.03;;
77123;SDS011;66079;47.646;19.130;2023-02-28T11:52:15;6.33;;;3.73;;
77123;SDS011;66079;47.646;19.130;2023-02-28T11:55:39;6.23;;;4.17;;
77123;SDS011;66079;47.646;19.130;2023-02-28T12:02:22;18.02;;;4.50;;
77123;SDS011;66079;47.646;19.130;2023-02-28T12:05:49;6.88;;;3.95;;
77123;SDS011;66079;47.646;19.130;2023-02-28T12:18:53;8.48;;;4.30;;
77123;SDS011;66079;47.646;19.130;2023-02-28T12:28:53;5.40;;;4.03;;
77123;SDS011;66079;47.646;19.130;2023-02-28T12:32:05;5.45;;;3.88;;
77123;SDS011;66079;47.646;19.130;2023-02-28T12:35:16;7.70;;;4.00;;
77123;SDS011;66079;47.646;19.130;2023-02-28T12:38:27;6.28;;;3.83;;
77123;SDS011;66079;47.646;19.130;2023-02-28T12:41:47;10.03;;;4.37;;
77123;SDS011;66079;47.646;19.130;2023-02-28T12:44:59;14.60;;;4.00;;
77123;SDS011;66079;47.646;19.130;2023-02-28T12:48:11;9.50;;;3.88;;
77123;SDS011;66079;47.646;19.130;2023-02-28T12:51:17;6.63;;;3.90;;
77123;SDS011;66079;47.646;19.130;2023-02-28T12:54:29;5.85;;;3.78;;
77123;SDS011;66079;47.646;19.130;2023-02-28T12:57:41;6.20;;;3.93;;
77123;SDS011;66079;47.646;19.130;2023-02-28T13:04:27;6.15;;;3.95;;
77123;SDS011;66079;47.646;19.130;2023-02-28T13:10:57;6.43;;;3.80;;
77123;SDS011;66079;47.646;19.130;2023-02-28T13:14:04;5.57;;;4.27;;
77123;SDS011;66079;47.646;19.130;2023-02-28T13:17:18;5.90;;;4.03;;
77123;SDS011;66079;47.646;19.130;2023-02-28T13:20:24;7.57;;;3.80;;
77123;SDS011;66079;47.646;19.130;2023-02-28T13:29:52;6.30;;;4.60;;
77123;SDS011;66079;47.646;19.130;2023-02-28T13:36:46;7.25;;;4.47;;
77123;SDS011;66079;47.646;19.130;2023-02-28T13:40:06;7.03;;;4.45;;
77123;SDS011;66079;47.646;19.130;2023-02-28T13:43:12;5.80;;;4.05;;
77123;SDS011;66079;47.646;19.130;2023-02-28T13:46:33;9.07;;;4.17;;
77123;SDS011;66079;47.646;19.130;2023-02-28T13:49:38;8.77;;;4.20;;
77123;SDS011;66079;47.646;19.130;2023-02-28T14:03:03;5.73;;;3.97;;
77123;SDS011;66079;47.646;19.130;2023-02-28T14:09:25;5.88;;;3.55;;
77123;SDS011;66079;47.646;19.130;2023-02-28T14:16:05;4.95;;;3.08;;
77123;SDS011;66079;47.646;19.130;2023-02-28T14:25:53;6.32;;;3.78;;
77123;SDS011;66079;47.646;19.130;2023-02-28T14:39:24;5.73;;;3.80;;
77123;SDS011;66079;47.646;19.130;2023-02-28T14:42:29;7.70;;;4.20;;
77123;SDS011;66079;47.646;19.130;2023-02-28T14:45:36;7.90;;;4.13;;
77123;SDS011;66079;47.646;19.130;2023-02-28T14:48:39;12.02;;;4.22;;
77123;SDS011;66079;47.646;19.130;2023-02-28T14:51:42;7.97;;;4.17;;
77123;SDS011;66079;47.646;19.130;2023-02-28T14:54:46;8.23;;;3.90;;
77123;SDS011;66079;47.646;19.130;2023-02-28T14:57:58;5.88;;;3.35;;
77123;SDS011;66079;47.646;19.130;2023-02-28T15:01:09;7.35;;;4.18;;
77123;SDS011;66079;47.646;19.130;2023-02-28T15:04:26;6.35;;;3.70;;
77123;SDS011;66079;47.646;19.130;2023-02-28T15:07:35;6.47;;;3.43;;
77123;SDS011;66079;47.646;19.130;2023-02-28T15:10:39;5.93;;;3.97;;
77123;SDS011;66079;47.646;19.130;2023-02-28T15:13:47;6.95;;;3.65;;
77123;SDS011;66079;47.646;19.130;2023-02-28T15:16:54;5.28;;;3.20;;
77123;SDS011;66079;47.646;19.130;2023-02-28T15:19:59;6.65;;;3.60;;
77123;SDS011;66079;47.646;19.130;2023-02-28T15:23:03;5.73;;;3.97;;
77123;SDS011;66079;47.646;19.130;2023-02-28T15:26:06;6.87;;;4.03;;
77123;SDS011;66079;47.646;19.130;2023-02-28T15:29:15;6.93;;;4.20;;
77123;SDS011;66079;47.646;19.130;2023-02-28T15:35:34;7.13;;;4.07;;
77123;SDS011;66079;47.646;19.130;2023-02-28T15:38:37;9.17;;;3.90;;
77123;SDS011;66079;47.646;19.130;2023-02-28T15:41:40;6.00;;;3.80;;
77123;SDS011;66079;47.646;19.130;2023-02-28T15:44:42;8.63;;;3.70;;
77123;SDS011;66079;47.646;19.130;2023-02-28T15:47:45;8.55;;;4.32;;
77123;SDS011;66079;47.646;19.130;2023-02-28T15:50:52;7.13;;;4.22;;
77123;SDS011;66079;47.646;19.130;2023-02-28T15:53:58;7.47;;;5.10;;
77123;SDS011;66079;47.646;19.130;2023-02-28T15:57:04;11.13;;;5.37;;
77123;SDS011;66079;47.646;19.130;2023-02-28T16:00:11;13.63;;;5.20;;
77123;SDS011;66079;47.646;19.130;2023-02-28T16:03:22;10.23;;;5.35;;
77123;SDS011;66079;47.646;19.130;2023-02-28T16:06:32;11.10;;;5.53;;
77123;SDS011;66079;47.646;19.130;2023-02-28T16:09:41;11.30;;;5.57;;
77123;SDS011;66079;47.646;19.130;2023-02-28T16:12:44;10.70;;;5.63;;
77123;SDS011;66079;47.646;19.130;2023-02-28T16:15:47;10.18;;;5.43;;
77123;SDS011;66079;47.646;19.130;2023-02-28T16:18:51;10.52;;;5.22;;
77123;SDS011;66079;47.646;19.130;2023-02-28T16:21:54;12.35;;;6.13;;
77123;SDS011;66079;47.646;19.130;2023-02-28T16:24:57;12.43;;;6.67;;
77123;SDS011;66079;47.646;19.130;2023-02-28T16:28:00;10.13;;;6.03;;
77123;SDS011;66079;47.646;19.130;2023-02-28T16:31:05;11.45;;;6.75;;
77123;SDS011;66079;47.646;19.130;2023-02-28T16:34:09;12.18;;;6.35;;
77123;SDS011;66079;47.646;19.130;2023-02-28T16:37:13;11.68;;;5.78;;
77123;SDS011;66079;47.646;19.130;2023-02-28T16:40:20;14.13;;;6.47;;
77123;SDS011;66079;47.646;19.130;2023-02-28T16:43:25;13.37;;;6.53;;
77123;SDS011;66079;47.646;19.130;2023-02-28T16:46:33;15.55;;;7.20;;
77123;SDS011;66079;47.646;19.130;2023-02-28T16:49:37;18.33;;;8.23;;
77123;SDS011;66079;47.646;19.130;2023-02-28T16:52:40;14.85;;;7.22;;
77123;SDS011;66079;47.646;19.130;2023-02-28T16:55:43;11.73;;;6.80;;
77123;SDS011;66079;47.646;19.130;2023-02-28T16:58:46;15.47;;;7.30;;
77123;SDS011;66079;47.646;19.130;2023-02-28T17:01:50;14.05;;;7.57;;
77123;SDS011;66079;47.646;19.130;2023-02-28T17:04:54;12.38;;;7.88;;
77123;SDS011;66079;47.646;19.130;2023-02-28T17:07:56;17.35;;;8.25;;
77123;SDS011;66079;47.646;19.130;2023-02-28T17:10:59;15.20;;;8.90;;
77123;SDS011;66079;47.646;19.130;2023-02-28T17:14:03;13.33;;;7.87;;
77123;SDS011;66079;47.646;19.130;2023-02-28T17:17:07;14.40;;;7.82;;
77123;SDS011;66079;47.646;19.130;2023-02-28T17:20:13;15.77;;;8.25;;
77123;SDS011;66079;47.646;19.130;2023-02-28T17:23:18;16.95;;;8.70;;
77123;SDS011;66079;47.646;19.130;2023-02-28T17:26:21;18.20;;;8.90;;
77123;SDS011;66079;47.646;19.130;2023-02-28T17:29:26;17.10;;;7.90;;
77123;SDS011;66079;47.646;19.130;2023-02-28T17:32:29;14.68;;;7.90;;
77123;SDS011;66079;47.646;19.130;2023-02-28T17:35:32;16.20;;;8.15;;
77123;SDS011;66079;47.646;19.130;2023-02-28T17:38:34;12.90;;;7.50;;
77123;SDS011;66079;47.646;19.130;2023-02-28T17:41:37;15.80;;;8.10;;
77123;SDS011;66079;47.646;19.130;2023-02-28T17:44:40;15.37;;;8.00;;
77123;SDS011;66079;47.646;19.130;2023-02-28T17:47:43;14.35;;;7.30;;
77123;SDS011;66079;47.646;19.130;2023-02-28T17:50:49;14.38;;;7.13;;
77123;SDS011;66079;47.646;19.130;2023-02-28T17:53:52;14.35;;;7.07;;
77123;SDS011;66079;47.646;19.130;2023-02-28T17:56:55;12.13;;;7.37;;
77123;SDS011;66079;47.646;19.130;2023-02-28T17:59:58;12.13;;;7.10;;
77123;SDS011;66079;47.646;19.130;2023-02-28T18:03:01;17.35;;;7.55;;
77123;SDS011;66079;47.646;19.130;2023-02-28T18:06:03;14.10;;;7.78;;
77123;SDS011;66079;47.646;19.130;2023-02-28T18:09:08;19.02;;;8.02;;
77123;SDS011;66079;47.646;19.130;2023-02-28T18:12:10;17.03;;;9.03;;
77123;SDS011;66079;47.646;19.130;2023-02-28T18:15:13;16.13;;;8.40;;
77123;SDS011;66079;47.646;19.130;2023-02-28T18:18:18;13.95;;;7.60;;
77123;SDS011;66079;47.646;19.130;2023-02-28T18:21:21;13.32;;;7.95;;
77123;SDS011;66079;47.646;19.130;2023-02-28T18:24:23;19.90;;;10.57;;
77123;SDS011;66079;47.646;19.130;2023-02-28T18:27:26;28.23;;;13.60;;
77123;SDS011;66079;47.646;19.130;2023-02-28T18:30:31;25.63;;;12.57;;
77123;SDS011;66079;47.646;19.130;2023-02-28T18:33:37;15.60;;;9.10;;
77123;SDS011;66079;47.646;19.130;2023-02-28T18:36:39;18.80;;;9.18;;
77123;SDS011;66079;47.646;19.130;2023-02-28T18:39:43;17.35;;;10.20;;
77123;SDS011;66079;47.646;19.130;2023-02-28T18:42:47;15.57;;;9.57;;
77123;SDS011;66079;47.646;19.130;2023-02-28T18:45:49;16.90;;;9.67;;
77123;SDS011;66079;47.646;19.130;2023-02-28T18:48:52;18.15;;;9.73;;
77123;SDS011;66079;47.646;19.130;2023-02-28T18:51:55;16.92;;;9.45;;
77123;SDS011;66079;47.646;19.130;2023-02-28T18:55:00;18.98;;;9.93;;
77123;SDS011;66079;47.646;19.130;2023-02-28T18:58:03;24.20;;;11.17;;
77123;SDS011;66079;47.646;19.130;2023-02-28T19:01:16;22.63;;;11.80;;
77123;SDS011;66079;47.646;19.130;2023-02-28T19:04:23;25.75;;;12.45;;
77123;SDS011;66079;47.646;19.130;2023-02-28T19:07:26;25.63;;;12.43;;
77123;SDS011;66079;47.646;19.130;2023-02-28T19:10:30;27.38;;;12.63;;
77123;SDS011;66079;47.646;19.130;2023-02-28T19:13:34;22.90;;;12.23;;
77123;SDS011;66079;47.646;19.130;2023-02-28T19:16:36;24.53;;;11.57;;
77123;SDS011;66079;47.646;19.130;2023-02-28T19:19:40;20.08;;;10.65;;
77123;SDS011;66079;47.646;19.130;2023-02-28T19:22:43;18.35;;;9.57;;
77123;SDS011;66079;47.646;19.130;2023-02-28T19:25:46;17.00;;;9.45;;
77123;SDS011;66079;47.646;19.130;2023-02-28T19:28:49;18.13;;;9.77;;
77123;SDS011;66079;47.646;19.130;2023-02-28T19:31:52;16.83;;;8.87;;
77123;SDS011;66079;47.646;19.130;2023-02-28T19:34:55;16.50;;;8.77;;
77123;SDS011;66079;47.646;19.130;2023-02-28T19:37:59;16.05;;;8.68;;
77123;SDS011;66079;47.646;19.130;2023-02-28T19:41:03;14.70;;;7.75;;
77123;SDS011;66079;47.646;19.130;2023-02-28T19:44:07;13.03;;;8.30;;
77123;SDS011;66079;47.646;19.130;2023-02-28T19:47:11;15.70;;;8.80;;
77123;SDS011;66079;47.646;19.130;2023-02-28T19:50:14;18.90;;;8.77;;
77123;SDS011;66079;47.646;19.130;2023-02-28T19:53:18;14.88;;;8.32;;
77123;SDS011;66079;47.646;19.130;2023-02-28T19:56:20;14.10;;;7.75;;
77123;SDS011;66079;47.646;19.130;2023-02-28T19:59:23;15.73;;;7.73;;
77123;SDS011;66079;47.646;19.130;2023-02-28T20:02:40;11.60;;;6.47;;
77123;SDS011;66079;47.646;19.130;2023-02-28T20:05:44;13.32;;;7.32;;
77123;SDS011;66079;47.646;19.130;2023-02-28T20:08:47;11.73;;;7.10;;
77123;SDS011;66079;47.646;19.130;2023-02-28T20:11:50;11.32;;;6.35;;
77123;SDS011;66079;47.646;19.130;2023-02-28T20:14:53;11.87;;;7.00;;
77123;SDS011;66079;47.646;19.130;2023-02-28T20:18:02;10.53;;;6.70;;
77123;SDS011;66079;47.646;19.130;2023-02-28T20:21:07;14.18;;;6.50;;
77123;SDS011;66079;47.646;19.130;2023-02-28T20:24:10;11.75;;;6.68;;